sensor_id;sensor_type;location;lat;lon;timestamp;P1;durP1;ratioP1;P2;durP2;ratioP2
44110;SDS011;29774;52.664;5.074;2022-08-19T00:00:41;4.35;;;3.03;;
44110;SDS011;29774;52.664;5.074;2022-08-19T00:03:07;2.13;;;1.20;;
44110;SDS011;29774;52.664;5.074;2022-08-19T00:05:33;1.23;;;1.10;;
44110;SDS011;29774;52.664;5.074;2022-08-19T00:07:59;4.03;;;3.15;;
44110;SDS011;29774;52.664;5.074;2022-08-19T00:10:24;1.88;;;1.23;;
44110;SDS011;29774;52.664;5.074;2022-08-19T00:12:50;1.42;;;1.33;;
44110;SDS011;29774;52.664;5.074;2022-08-19T00:15:17;3.33;;;1.10;;
44110;SDS011;29774;52.664;5.074;2022-08-19T00:17:46;2.10;;;1.35;;
44110;SDS011;29774;52.664;5.074;2022-08-19T00:20:12;1.77;;;1.30;;
44110;SDS011;29774;52.664;5.074;2022-08-19T00:22:42;1.55;;;1.35;;
44110;SDS011;29774;52.664;5.074;2022-08-19T00:25:09;1.35;;;1.25;;
44110;SDS011;29774;52.664;5.074;2022-08-19T00:27:35;1.20;;;1.10;;
44110;SDS011;29774;52.664;5.074;2022-08-19T00:30:01;2.10;;;1.90;;
44110;SDS011;29774;52.664;5.074;2022-08-19T00:32:29;3.45;;;3.15;;
44110;SDS011;29774;52.664;5.074;2022-08-19T00:34:54;2.58;;;1.38;;
44110;SDS011;29774;52.664;5.074;2022-08-19T00:37:21;1.75;;;1.20;;
44110;SDS011;29774;52.664;5.074;2022-08-19T00:39:48;2.75;;;1.60;;
44110;SDS011;29774;52.664;5.074;2022-08-19T00:42:16;2.75;;;1.60;;
44110;SDS011;29774;52.664;5.074;2022-08-19T00:44:42;1.88;;;1.52;;
44110;SDS011;29774;52.664;5.074;2022-08-19T00:47:08;3.17;;;1.60;;
44110;SDS011;29774;52.664;5.074;2022-08-19T00:49:35;1.50;;;1.40;;
44110;SDS011;29774;52.664;5.074;2022-08-19T00:52:11;2.20;;;1.40;;
44110;SDS011;29774;52.664;5.074;2022-08-19T00:54:41;1.20;;;1.10;;
44110;SDS011;29774;52.664;5.074;2022-08-19T00:57:10;1.20;;;1.10;;
44110;SDS011;29774;52.664;5.074;2022-08-19T00:59:40;4.22;;;1.40;;
44110;SDS011;29774;52.664;5.074;2022-08-19T01:02:07;1.20;;;1.10;;
44110;SDS011;29774;52.664;5.074;2022-08-19T01:04:33;1.92;;;1.38;;
44110;SDS011;29774;52.664;5.074;2022-08-19T01:07:01;2.40;;;1.00;;
44110;SDS011;29774;52.664;5.074;2022-08-19T01:09:28;1.55;;;1.15;;
44110;SDS011;29774;52.664;5.074;2022-08-19T01:11:54;3.20;;;1.55;;
44110;SDS011;29774;52.664;5.074;2022-08-19T01:14:21;1.80;;;1.23;;
44110;SDS011;29774;52.664;5.074;2022-08-19T01:16:46;1.83;;;1.50;;
44110;SDS011;29774;52.664;5.074;2022-08-19T01:19:15;1.13;;;1.02;;
44110;SDS011;29774;52.664;5.074;2022-08-19T01:21:52;2.25;;;1.65;;
44110;SDS011;29774;52.664;5.074;2022-08-19T01:24:22;2.72;;;1.20;;
44110;SDS011;29774;52.664;5.074;2022-08-19T01:26:48;2.03;;;1.83;;
44110;SDS011;29774;52.664;5.074;2022-08-19T01:29:13;2.40;;;1.98;;
44110;SDS011;29774;52.664;5.074;2022-08-19T01:31:39;1.88;;;1.75;;
44110;SDS011;29774;52.664;5.074;2022-08-19T01:34:05;1.80;;;1.45;;
44110;SDS011;29774;52.664;5.074;2022-08-19T01:36:33;1.80;;;1.70;;
44110;SDS011;29774;52.664;5.074;2022-08-19T01:39:02;1.67;;;1.52;;
44110;SDS011;29774;52.664;5.074;2022-08-19T01:41:31;5.35;;;4.53;;
44110;SDS011;29774;52.664;5.074;2022-08-19T01:43:56;1.52;;;1.42;;
44110;SDS011;29774;52.664;5.074;2022-08-19T01:46:22;1.73;;;1.48;;
44110;SDS011;29774;52.664;5.074;2022-08-19T01:48:48;1.77;;;1.60;;
44110;SDS011;29774;52.664;5.074;2022-08-19T01:51:13;1.73;;;1.50;;
44110;SDS011;29774;52.664;5.074;2022-08-19T01:53:39;1.98;;;1.48;;
44110;SDS011;29774;52.664;5.074;2022-08-19T01:56:06;1.50;;;1.40;;
44110;SDS011;29774;52.664;5.074;2022-08-19T01:58:40;1.48;;;1.30;;
44110;SDS011;29774;52.664;5.074;2022-08-19T02:01:11;1.67;;;1.58;;
44110;SDS011;29774;52.664;5.074;2022-08-19T02:03:38;1.90;;;1.67;;
44110;SDS011;29774;52.664;5.074;2022-08-19T02:06:04;1.83;;;1.55;;
44110;SDS011;29774;52.664;5.074;2022-08-19T02:08:30;1.60;;;1.50;;
44110;SDS011;29774;52.664;5.074;2022-08-19T02:10:57;2.72;;;1.90;;
44110;SDS011;29774;52.664;5.074;2022-08-19T02:13:24;3.28;;;2.00;;
44110;SDS011;29774;52.664;5.074;2022-08-19T02:15:50;2.88;;;1.75;;
44110;SDS011;29774;52.664;5.074;2022-08-19T02:18:16;1.73;;;1.63;;
44110;SDS011;29774;52.664;5.074;2022-08-19T02:20:41;1.80;;;1.67;;
44110;SDS011;29774;52.664;5.074;2022-08-19T02:23:08;1.60;;;1.50;;
44110;SDS011;29774;52.664;5.074;2022-08-19T02:25:35;2.17;;;1.65;;
44110;SDS011;29774;52.664;5.074;2022-08-19T02:28:01;2.33;;;2.13;;
44110;SDS011;29774;52.664;5.074;2022-08-19T02:30:27;2.28;;;1.83;;
44110;SDS011;29774;52.664;5.074;2022-08-19T02:32:53;2.40;;;1.90;;
44110;SDS011;29774;52.664;5.074;2022-08-19T02:35:19;2.13;;;1.73;;
44110;SDS011;29774;52.664;5.074;2022-08-19T02:37:45;1.88;;;1.73;;
44110;SDS011;29774;52.664;5.074;2022-08-19T02:40:30;2.08;;;1.77;;
44110;SDS011;29774;52.664;5.074;2022-08-19T02:42:59;1.80;;;1.70;;
44110;SDS011;29774;52.664;5.074;2022-08-19T02:45:26;2.03;;;1.92;;
44110;SDS011;29774;52.664;5.074;2022-08-19T02:47:52;2.25;;;1.80;;
44110;SDS011;29774;52.664;5.074;2022-08-19T02:50:18;1.90;;;1.80;;
44110;SDS011;29774;52.664;5.074;2022-08-19T02:52:43;2.42;;;2.00;;
44110;SDS011;29774;52.664;5.074;2022-08-19T02:55:10;1.70;;;1.52;;
44110;SDS011;29774;52.664;5.074;2022-08-19T02:57:35;2.38;;;2.10;;
44110;SDS011;29774;52.664;5.074;2022-08-19T03:00:03;2.30;;;2.05;;
44110;SDS011;29774;52.664;5.074;2022-08-19T03:02:31;2.22;;;2.03;;
44110;SDS011;29774;52.664;5.074;2022-08-19T03:04:56;2.42;;;2.00;;
44110;SDS011;29774;52.664;5.074;2022-08-19T03:07:22;2.03;;;1.80;;
44110;SDS011;29774;52.664;5.074;2022-08-19T03:09:48;2.20;;;2.00;;
44110;SDS011;29774;52.664;5.074;2022-08-19T03:12:13;2.53;;;2.30;;
44110;SDS011;29774;52.664;5.074;2022-08-19T03:14:39;2.42;;;2.22;;
44110;SDS011;29774;52.664;5.074;2022-08-19T03:17:04;2.30;;;1.88;;
44110;SDS011;29774;52.664;5.074;2022-08-19T03:19:31;3.58;;;1.90;;
44110;SDS011;29774;52.664;5.074;2022-08-19T03:21:57;3.78;;;2.05;;
44110;SDS011;29774;52.664;5.074;2022-08-19T03:24:23;4.15;;;3.75;;
44110;SDS011;29774;52.664;5.074;2022-08-19T03:26:50;2.88;;;2.50;;
44110;SDS011;29774;52.664;5.074;2022-08-19T03:29:18;2.53;;;2.20;;
44110;SDS011;29774;52.664;5.074;2022-08-19T03:31:44;2.60;;;2.40;;
44110;SDS011;29774;52.664;5.074;2022-08-19T03:34:11;5.07;;;4.25;;
44110;SDS011;29774;52.664;5.074;2022-08-19T03:36:39;3.65;;;2.50;;
44110;SDS011;29774;52.664;5.074;2022-08-19T03:39:05;3.33;;;2.72;;
44110;SDS011;29774;52.664;5.074;2022-08-19T03:41:37;3.10;;;2.35;;
44110;SDS011;29774;52.664;5.074;2022-08-19T03:44:04;2.50;;;2.30;;
44110;SDS011;29774;52.664;5.074;2022-08-19T03:46:30;2.42;;;2.22;;
44110;SDS011;29774;52.664;5.074;2022-08-19T03:48:58;2.53;;;2.33;;
44110;SDS011;29774;52.664;5.074;2022-08-19T03:51:26;2.50;;;2.30;;
44110;SDS011;29774;52.664;5.074;2022-08-19T03:53:55;2.50;;;2.17;;
44110;SDS011;29774;52.664;5.074;2022-08-19T03:56:22;2.80;;;2.60;;
44110;SDS011;29774;52.664;5.074;2022-08-19T03:58:50;2.85;;;2.50;;
44110;SDS011;29774;52.664;5.074;2022-08-19T04:01:18;3.83;;;2.50;;
44110;SDS011;29774;52.664;5.074;2022-08-19T04:03:46;2.53;;;2.30;;
44110;SDS011;29774;52.664;5.074;2022-08-19T04:06:13;2.63;;;2.40;;
44110;SDS011;29774;52.664;5.074;2022-08-19T04:09:08;2.80;;;2.22;;
44110;SDS011;29774;52.664;5.074;2022-08-19T04:11:40;2.78;;;2.47;;
44110;SDS011;29774;52.664;5.074;2022-08-19T04:14:13;3.03;;;2.65;;
44110;SDS011;29774;52.664;5.074;2022-08-19T04:16:43;4.57;;;3.63;;
44110;SDS011;29774;52.664;5.074;2022-08-19T04:19:10;2.40;;;2.20;;
44110;SDS011;29774;52.664;5.074;2022-08-19T04:21:36;3.33;;;2.55;;
44110;SDS011;29774;52.664;5.074;2022-08-19T04:24:02;2.70;;;2.50;;
44110;SDS011;29774;52.664;5.074;2022-08-19T04:26:30;4.57;;;2.70;;
44110;SDS011;29774;52.664;5.074;2022-08-19T04:28:58;2.78;;;2.50;;
44110;SDS011;29774;52.664;5.074;2022-08-19T04:31:30;2.85;;;2.58;;
44110;SDS011;29774;52.664;5.074;2022-08-19T04:33:58;2.90;;;2.63;;
44110;SDS011;29774;52.664;5.074;2022-08-19T04:36:26;3.20;;;2.90;;
44110;SDS011;29774;52.664;5.074;2022-08-19T04:38:54;2.80;;;2.60;;
44110;SDS011;29774;52.664;5.074;2022-08-19T04:41:22;3.13;;;2.55;;
44110;SDS011;29774;52.664;5.074;2022-08-19T04:44:07;3.50;;;2.70;;
44110;SDS011;29774;52.664;5.074;2022-08-19T04:46:33;3.33;;;2.65;;
44110;SDS011;29774;52.664;5.074;2022-08-19T04:48:59;3.50;;;2.70;;
44110;SDS011;29774;52.664;5.074;2022-08-19T04:51:26;3.13;;;2.80;;
44110;SDS011;29774;52.664;5.074;2022-08-19T04:53:52;2.80;;;2.60;;
44110;SDS011;29774;52.664;5.074;2022-08-19T04:56:18;3.55;;;2.70;;
44110;SDS011;29774;52.664;5.074;2022-08-19T04:58:46;2.38;;;2.17;;
44110;SDS011;29774;52.664;5.074;2022-08-19T05:01:26;2.90;;;2.60;;
44110;SDS011;29774;52.664;5.074;2022-08-19T05:03:57;3.85;;;2.67;;
44110;SDS011;29774;52.664;5.074;2022-08-19T05:06:23;2.65;;;2.45;;
44110;SDS011;29774;52.664;5.074;2022-08-19T05:08:50;3.05;;;2.67;;
44110;SDS011;29774;52.664;5.074;2022-08-19T05:11:17;3.47;;;3.15;;
44110;SDS011;29774;52.664;5.074;2022-08-19T05:13:46;3.38;;;2.67;;
44110;SDS011;29774;52.664;5.074;2022-08-19T05:16:13;4.22;;;3.25;;
44110;SDS011;29774;52.664;5.074;2022-08-19T05:18:41;3.85;;;3.22;;
44110;SDS011;29774;52.664;5.074;2022-08-19T05:21:25;4.25;;;3.30;;
44110;SDS011;29774;52.664;5.074;2022-08-19T05:24:10;3.40;;;3.10;;
44110;SDS011;29774;52.664;5.074;2022-08-19T05:26:38;3.75;;;3.33;;
44110;SDS011;29774;52.664;5.074;2022-08-19T05:29:04;3.88;;;3.47;;
44110;SDS011;29774;52.664;5.074;2022-08-19T05:31:32;4.13;;;3.70;;
44110;SDS011;29774;52.664;5.074;2022-08-19T05:33:58;4.50;;;4.07;;
44110;SDS011;29774;52.664;5.074;2022-08-19T05:36:28;4.60;;;4.20;;
44110;SDS011;29774;52.664;5.074;2022-08-19T05:38:57;4.22;;;3.78;;
44110;SDS011;29774;52.664;5.074;2022-08-19T05:41:23;6.25;;;4.63;;
44110;SDS011;29774;52.664;5.074;2022-08-19T05:44:00;4.80;;;4.32;;
44110;SDS011;29774;52.664;5.074;2022-08-19T05:46:30;6.25;;;4.30;;
44110;SDS011;29774;52.664;5.074;2022-08-19T05:48:57;4.90;;;3.97;;
44110;SDS011;29774;52.664;5.074;2022-08-19T05:51:23;4.43;;;3.88;;
44110;SDS011;29774;52.664;5.074;2022-08-19T05:53:49;5.18;;;3.80;;
44110;SDS011;29774;52.664;5.074;2022-08-19T05:56:16;4.50;;;4.10;;
44110;SDS011;29774;52.664;5.074;2022-08-19T05:58:43;4.97;;;4.47;;
44110;SDS011;29774;52.664;5.074;2022-08-19T06:01:11;4.63;;;4.20;;
44110;SDS011;29774;52.664;5.074;2022-08-19T06:03:39;5.22;;;4.70;;
44110;SDS011;29774;52.664;5.074;2022-08-19T06:06:06;9.38;;;6.43;;
44110;SDS011;29774;52.664;5.074;2022-08-19T06:08:32;5.45;;;4.45;;
44110;SDS011;29774;52.664;5.074;2022-08-19T06:11:11;5.45;;;4.43;;
44110;SDS011;29774;52.664;5.074;2022-08-19T06:13:39;6.25;;;5.00;;
44110;SDS011;29774;52.664;5.074;2022-08-19T06:16:04;5.10;;;4.30;;
44110;SDS011;29774;52.664;5.074;2022-08-19T06:18:30;5.25;;;4.47;;
44110;SDS011;29774;52.664;5.074;2022-08-19T06:20:55;6.15;;;4.65;;
44110;SDS011;29774;52.664;5.074;2022-08-19T06:23:21;5.82;;;4.90;;
44110;SDS011;29774;52.664;5.074;2022-08-19T06:25:47;5.20;;;4.60;;
44110;SDS011;29774;52.664;5.074;2022-08-19T06:28:12;6.15;;;4.20;;
44110;SDS011;29774;52.664;5.074;2022-08-19T06:30:38;5.85;;;4.55;;
44110;SDS011;29774;52.664;5.074;2022-08-19T06:33:03;5.57;;;4.40;;
44110;SDS011;29774;52.664;5.074;2022-08-19T06:35:29;5.95;;;4.10;;
44110;SDS011;29774;52.664;5.074;2022-08-19T06:37:55;4.57;;;4.10;;
44110;SDS011;29774;52.664;5.074;2022-08-19T06:40:20;5.82;;;3.92;;
44110;SDS011;29774;52.664;5.074;2022-08-19T06:42:46;4.70;;;4.18;;
44110;SDS011;29774;52.664;5.074;2022-08-19T06:45:12;4.15;;;3.70;;
44110;SDS011;29774;52.664;5.074;2022-08-19T06:47:37;5.68;;;4.18;;
44110;SDS011;29774;52.664;5.074;2022-08-19T06:50:03;5.40;;;3.95;;
44110;SDS011;29774;52.664;5.074;2022-08-19T06:52:33;4.88;;;3.67;;
44110;SDS011;29774;52.664;5.074;2022-08-19T06:55:00;4.10;;;3.50;;
44110;SDS011;29774;52.664;5.074;2022-08-19T06:57:26;8.15;;;6.43;;
44110;SDS011;29774;52.664;5.074;2022-08-19T06:59:53;4.50;;;4.05;;
44110;SDS011;29774;52.664;5.074;2022-08-19T07:02:21;4.15;;;3.63;;
44110;SDS011;29774;52.664;5.074;2022-08-19T07:04:51;4.45;;;3.75;;
44110;SDS011;29774;52.664;5.074;2022-08-19T07:07:17;5.82;;;3.88;;
44110;SDS011;29774;52.664;5.074;2022-08-19T07:09:43;5.10;;;3.72;;
44110;SDS011;29774;52.664;5.074;2022-08-19T07:12:09;4.60;;;3.58;;
44110;SDS011;29774;52.664;5.074;2022-08-19T07:14:37;5.78;;;3.38;;
44110;SDS011;29774;52.664;5.074;2022-08-19T07:17:09;4.03;;;3.53;;
44110;SDS011;29774;52.664;5.074;2022-08-19T07:19:37;4.28;;;3.42;;
44110;SDS011;29774;52.664;5.074;2022-08-19T07:22:04;3.60;;;3.28;;
44110;SDS011;29774;52.664;5.074;2022-08-19T07:24:31;5.18;;;3.58;;
44110;SDS011;29774;52.664;5.074;2022-08-19T07:26:58;4.22;;;3.30;;
44110;SDS011;29774;52.664;5.074;2022-08-19T07:29:27;4.40;;;3.33;;
44110;SDS011;29774;52.664;5.074;2022-08-19T07:31:55;5.47;;;3.65;;
44110;SDS011;29774;52.664;5.074;2022-08-19T07:34:22;3.60;;;3.28;;
44110;SDS011;29774;52.664;5.074;2022-08-19T07:36:48;4.88;;;3.17;;
44110;SDS011;29774;52.664;5.074;2022-08-19T07:39:16;3.40;;;3.10;;
44110;SDS011;29774;52.664;5.074;2022-08-19T07:41:44;8.82;;;5.88;;
44110;SDS011;29774;52.664;5.074;2022-08-19T07:44:11;3.95;;;3.05;;
44110;SDS011;29774;52.664;5.074;2022-08-19T07:46:39;3.83;;;3.40;;
44110;SDS011;29774;52.664;5.074;2022-08-19T07:49:06;3.78;;;3.40;;
44110;SDS011;29774;52.664;5.074;2022-08-19T07:51:33;3.90;;;3.50;;
44110;SDS011;29774;52.664;5.074;2022-08-19T07:53:59;4.22;;;3.28;;
44110;SDS011;29774;52.664;5.074;2022-08-19T07:56:25;4.72;;;3.40;;
44110;SDS011;29774;52.664;5.074;2022-08-19T07:58:51;10.63;;;7.32;;
44110;SDS011;29774;52.664;5.074;2022-08-19T08:01:19;8.02;;;5.13;;
44110;SDS011;29774;52.664;5.074;2022-08-19T08:03:47;3.30;;;3.00;;
44110;SDS011;29774;52.664;5.074;2022-08-19T08:06:33;4.00;;;3.58;;
44110;SDS011;29774;52.664;5.074;2022-08-19T08:09:38;5.65;;;3.38;;
44110;SDS011;29774;52.664;5.074;2022-08-19T08:12:07;4.43;;;3.17;;
44110;SDS011;29774;52.664;5.074;2022-08-19T08:14:37;4.20;;;3.05;;
44110;SDS011;29774;52.664;5.074;2022-08-19T08:17:06;5.43;;;3.22;;
44110;SDS011;29774;52.664;5.074;2022-08-19T08:19:32;4.28;;;3.88;;
44110;SDS011;29774;52.664;5.074;2022-08-19T08:21:58;3.78;;;3.30;;
44110;SDS011;29774;52.664;5.074;2022-08-19T08:24:26;4.85;;;3.60;;
44110;SDS011;29774;52.664;5.074;2022-08-19T08:26:53;4.00;;;3.20;;
44110;SDS011;29774;52.664;5.074;2022-08-19T08:29:18;4.72;;;3.30;;
44110;SDS011;29774;52.664;5.074;2022-08-19T08:31:44;3.83;;;2.92;;
44110;SDS011;29774;52.664;5.074;2022-08-19T08:34:11;3.42;;;3.10;;
44110;SDS011;29774;52.664;5.074;2022-08-19T08:36:38;5.22;;;3.17;;
44110;SDS011;29774;52.664;5.074;2022-08-19T08:39:06;2.97;;;2.50;;
44110;SDS011;29774;52.664;5.074;2022-08-19T08:41:58;3.88;;;2.67;;
44110;SDS011;29774;52.664;5.074;2022-08-19T08:47:01;2.72;;;2.40;;
44110;SDS011;29774;52.664;5.074;2022-08-19T08:49:43;4.18;;;2.50;;
44110;SDS011;29774;52.664;5.074;2022-08-19T08:52:18;3.15;;;2.47;;
44110;SDS011;29774;52.664;5.074;2022-08-19T08:54:48;5.85;;;3.22;;
44110;SDS011;29774;52.664;5.074;2022-08-19T08:57:19;3.13;;;2.55;;
44110;SDS011;29774;52.664;5.074;2022-08-19T09:00:00;3.33;;;2.63;;
44110;SDS011;29774;52.664;5.074;2022-08-19T09:02:30;3.03;;;2.42;;
44110;SDS011;29774;52.664;5.074;2022-08-19T09:04:56;3.53;;;2.42;;
44110;SDS011;29774;52.664;5.074;2022-08-19T09:07:39;3.60;;;2.58;;
44110;SDS011;29774;52.664;5.074;2022-08-19T09:15:42;2.35;;;1.90;;
44110;SDS011;29774;52.664;5.074;2022-08-19T09:18:12;2.63;;;2.17;;
44110;SDS011;29774;52.664;5.074;2022-08-19T09:20:38;2.40;;;1.90;;
44110;SDS011;29774;52.664;5.074;2022-08-19T09:23:04;3.08;;;2.35;;
44110;SDS011;29774;52.664;5.074;2022-08-19T09:25:30;2.78;;;2.30;;
44110;SDS011;29774;52.664;5.074;2022-08-19T09:27:57;3.03;;;2.13;;
44110;SDS011;29774;52.664;5.074;2022-08-19T09:30:28;2.85;;;2.47;;
44110;SDS011;29774;52.664;5.074;2022-08-19T09:32:55;4.10;;;2.72;;
44110;SDS011;29774;52.664;5.074;2022-08-19T09:35:22;3.58;;;2.53;;
44110;SDS011;29774;52.664;5.074;2022-08-19T09:37:49;3.53;;;2.97;;
44110;SDS011;29774;52.664;5.074;2022-08-19T09:40:16;2.83;;;2.17;;
44110;SDS011;29774;52.664;5.074;2022-08-19T09:42:43;3.45;;;2.50;;
44110;SDS011;29774;52.664;5.074;2022-08-19T09:45:11;3.05;;;2.85;;
44110;SDS011;29774;52.664;5.074;2022-08-19T09:47:37;2.45;;;2.17;;
44110;SDS011;29774;52.664;5.074;2022-08-19T09:50:04;2.92;;;2.40;;
44110;SDS011;29774;52.664;5.074;2022-08-19T09:52:31;2.92;;;2.10;;
44110;SDS011;29774;52.664;5.074;2022-08-19T09:54:56;5.15;;;4.22;;
44110;SDS011;29774;52.664;5.074;2022-08-19T09:57:22;2.78;;;2.10;;
44110;SDS011;29774;52.664;5.074;2022-08-19T09:59:48;4.60;;;3.17;;
44110;SDS011;29774;52.664;5.074;2022-08-19T10:02:13;2.80;;;2.42;;
44110;SDS011;29774;52.664;5.074;2022-08-19T10:04:39;2.42;;;2.22;;
44110;SDS011;29774;52.664;5.074;2022-08-19T10:07:23;3.03;;;2.38;;
44110;SDS011;29774;52.664;5.074;2022-08-19T10:09:49;2.97;;;2.13;;
44110;SDS011;29774;52.664;5.074;2022-08-19T10:12:15;4.45;;;2.97;;
44110;SDS011;29774;52.664;5.074;2022-08-19T10:14:40;2.60;;;2.40;;
44110;SDS011;29774;52.664;5.074;2022-08-19T10:17:07;2.53;;;2.10;;
44110;SDS011;29774;52.664;5.074;2022-08-19T10:19:33;3.70;;;2.65;;
44110;SDS011;29774;52.664;5.074;2022-08-19T10:22:04;2.50;;;2.30;;
44110;SDS011;29774;52.664;5.074;2022-08-19T10:24:31;2.13;;;1.92;;
44110;SDS011;29774;52.664;5.074;2022-08-19T10:26:58;2.95;;;2.40;;
44110;SDS011;29774;52.664;5.074;2022-08-19T10:29:25;2.55;;;2.30;;
44110;SDS011;29774;52.664;5.074;2022-08-19T10:31:53;3.00;;;2.45;;
44110;SDS011;29774;52.664;5.074;2022-08-19T10:34:18;2.45;;;1.83;;
44110;SDS011;29774;52.664;5.074;2022-08-19T10:36:44;3.50;;;2.30;;
44110;SDS011;29774;52.664;5.074;2022-08-19T10:39:10;2.22;;;2.05;;
44110;SDS011;29774;52.664;5.074;2022-08-19T10:41:37;2.20;;;2.00;;
44110;SDS011;29774;52.664;5.074;2022-08-19T10:44:05;2.90;;;2.38;;
44110;SDS011;29774;52.664;5.074;2022-08-19T10:46:33;2.95;;;2.20;;
44110;SDS011;29774;52.664;5.074;2022-08-19T10:49:03;2.17;;;1.90;;
44110;SDS011;29774;52.664;5.074;2022-08-19T10:51:30;2.38;;;2.15;;
44110;SDS011;29774;52.664;5.074;2022-08-19T10:54:16;2.40;;;2.20;;
44110;SDS011;29774;52.664;5.074;2022-08-19T10:56:42;2.13;;;2.03;;
44110;SDS011;29774;52.664;5.074;2022-08-19T10:59:21;3.58;;;3.28;;
44110;SDS011;29774;52.664;5.074;2022-08-19T11:01:48;3.90;;;3.45;;
44110;SDS011;29774;52.664;5.074;2022-08-19T11:04:15;9.45;;;4.03;;
44110;SDS011;29774;52.664;5.074;2022-08-19T11:06:46;3.05;;;2.35;;
44110;SDS011;29774;52.664;5.074;2022-08-19T11:09:21;2.35;;;2.05;;
44110;SDS011;29774;52.664;5.074;2022-08-19T11:11:51;4.75;;;4.28;;
44110;SDS011;29774;52.664;5.074;2022-08-19T11:14:18;2.72;;;2.08;;
44110;SDS011;29774;52.664;5.074;2022-08-19T11:16:45;2.22;;;2.10;;
44110;SDS011;29774;52.664;5.074;2022-08-19T11:19:11;3.17;;;2.28;;
44110;SDS011;29774;52.664;5.074;2022-08-19T11:21:39;3.92;;;2.83;;
44110;SDS011;29774;52.664;5.074;2022-08-19T11:24:07;3.20;;;2.10;;
44110;SDS011;29774;52.664;5.074;2022-08-19T11:26:35;4.90;;;4.10;;
44110;SDS011;29774;52.664;5.074;2022-08-19T11:29:02;3.50;;;2.60;;
44110;SDS011;29774;52.664;5.074;2022-08-19T11:31:29;2.45;;;2.22;;
44110;SDS011;29774;52.664;5.074;2022-08-19T11:33:57;3.10;;;2.28;;
44110;SDS011;29774;52.664;5.074;2022-08-19T11:36:24;3.35;;;2.25;;
44110;SDS011;29774;52.664;5.074;2022-08-19T11:38:50;2.47;;;2.28;;
44110;SDS011;29774;52.664;5.074;2022-08-19T11:41:17;2.53;;;2.30;;
44110;SDS011;29774;52.664;5.074;2022-08-19T11:43:44;2.38;;;2.17;;
44110;SDS011;29774;52.664;5.074;2022-08-19T11:46:10;4.40;;;2.50;;
44110;SDS011;29774;52.664;5.074;2022-08-19T11:48:38;3.20;;;2.10;;
44110;SDS011;29774;52.664;5.074;2022-08-19T11:51:05;4.60;;;3.53;;
44110;SDS011;29774;52.664;5.074;2022-08-19T11:53:33;4.53;;;3.17;;
44110;SDS011;29774;52.664;5.074;2022-08-19T11:56:00;2.95;;;2.30;;
44110;SDS011;29774;52.664;5.074;2022-08-19T11:58:25;2.33;;;1.98;;
44110;SDS011;29774;52.664;5.074;2022-08-19T12:00:51;2.75;;;2.38;;
44110;SDS011;29774;52.664;5.074;2022-08-19T12:03:17;2.30;;;2.10;;
44110;SDS011;29774;52.664;5.074;2022-08-19T12:05:44;3.30;;;2.45;;
44110;SDS011;29774;52.664;5.074;2022-08-19T12:08:10;2.78;;;2.50;;
44110;SDS011;29774;52.664;5.074;2022-08-19T12:10:38;3.10;;;2.72;;
44110;SDS011;29774;52.664;5.074;2022-08-19T12:13:04;2.67;;;2.38;;
44110;SDS011;29774;52.664;5.074;2022-08-19T12:15:34;2.60;;;2.40;;
44110;SDS011;29774;52.664;5.074;2022-08-19T12:18:02;2.75;;;2.55;;
44110;SDS011;29774;52.664;5.074;2022-08-19T12:20:29;2.83;;;2.20;;
44110;SDS011;29774;52.664;5.074;2022-08-19T12:22:55;2.90;;;2.70;;
44110;SDS011;29774;52.664;5.074;2022-08-19T12:25:20;4.68;;;3.30;;
44110;SDS011;29774;52.664;5.074;2022-08-19T12:27:46;2.85;;;2.55;;
44110;SDS011;29774;52.664;5.074;2022-08-19T12:30:12;3.83;;;2.53;;
44110;SDS011;29774;52.664;5.074;2022-08-19T12:32:39;2.50;;;2.30;;
44110;SDS011;29774;52.664;5.074;2022-08-19T12:35:05;3.15;;;2.85;;
44110;SDS011;29774;52.664;5.074;2022-08-19T12:37:33;3.83;;;2.45;;
44110;SDS011;29774;52.664;5.074;2022-08-19T12:39:59;3.97;;;2.88;;
44110;SDS011;29774;52.664;5.074;2022-08-19T12:42:25;2.53;;;2.33;;
44110;SDS011;29774;52.664;5.074;2022-08-19T12:44:50;4.15;;;2.30;;
44110;SDS011;29774;52.664;5.074;2022-08-19T12:47:16;2.53;;;2.22;;
44110;SDS011;29774;52.664;5.074;2022-08-19T12:49:42;3.45;;;2.50;;
44110;SDS011;29774;52.664;5.074;2022-08-19T12:52:10;3.58;;;2.60;;
44110;SDS011;29774;52.664;5.074;2022-08-19T12:54:36;2.38;;;2.17;;
44110;SDS011;29774;52.664;5.074;2022-08-19T12:57:08;2.50;;;2.22;;
44110;SDS011;29774;52.664;5.074;2022-08-19T12:59:35;2.95;;;2.35;;
44110;SDS011;29774;52.664;5.074;2022-08-19T13:02:05;2.15;;;1.95;;
44110;SDS011;29774;52.664;5.074;2022-08-19T13:04:32;2.08;;;1.88;;
44110;SDS011;29774;52.664;5.074;2022-08-19T13:07:01;2.30;;;2.10;;
44110;SDS011;29774;52.664;5.074;2022-08-19T13:09:26;2.22;;;1.80;;
44110;SDS011;29774;52.664;5.074;2022-08-19T13:11:52;2.42;;;2.10;;
44110;SDS011;29774;52.664;5.074;2022-08-19T13:14:17;1.85;;;1.75;;
44110;SDS011;29774;52.664;5.074;2022-08-19T13:16:43;1.95;;;1.85;;
44110;SDS011;29774;52.664;5.074;2022-08-19T13:19:09;2.38;;;1.90;;
44110;SDS011;29774;52.664;5.074;2022-08-19T13:21:35;1.92;;;1.75;;
44110;SDS011;29774;52.664;5.074;2022-08-19T13:24:01;1.83;;;1.73;;
44110;SDS011;29774;52.664;5.074;2022-08-19T13:26:27;2.20;;;2.05;;
44110;SDS011;29774;52.664;5.074;2022-08-19T13:28:52;2.05;;;1.85;;
44110;SDS011;29774;52.664;5.074;2022-08-19T13:31:39;2.38;;;1.60;;
44110;SDS011;29774;52.664;5.074;2022-08-19T13:34:30;1.83;;;1.73;;
44110;SDS011;29774;52.664;5.074;2022-08-19T13:36:58;3.03;;;2.15;;
44110;SDS011;29774;52.664;5.074;2022-08-19T13:39:27;1.83;;;1.58;;
44110;SDS011;29774;52.664;5.074;2022-08-19T13:41:54;2.83;;;1.85;;
44110;SDS011;29774;52.664;5.074;2022-08-19T13:44:20;1.55;;;1.42;;
44110;SDS011;29774;52.664;5.074;2022-08-19T13:46:46;1.60;;;1.50;;
44110;SDS011;29774;52.664;5.074;2022-08-19T13:49:15;1.85;;;1.63;;
44110;SDS011;29774;52.664;5.074;2022-08-19T13:51:44;1.50;;;1.40;;
44110;SDS011;29774;52.664;5.074;2022-08-19T13:54:10;1.40;;;1.30;;
44110;SDS011;29774;52.664;5.074;2022-08-19T13:56:41;1.65;;;1.55;;
44110;SDS011;29774;52.664;5.074;2022-08-19T13:59:08;1.70;;;1.38;;
44110;SDS011;29774;52.664;5.074;2022-08-19T14:01:34;1.42;;;1.33;;
44110;SDS011;29774;52.664;5.074;2022-08-19T14:04:01;2.83;;;1.48;;
44110;SDS011;29774;52.664;5.074;2022-08-19T14:06:27;2.28;;;1.40;;
44110;SDS011;29774;52.664;5.074;2022-08-19T14:08:55;1.42;;;1.33;;
44110;SDS011;29774;52.664;5.074;2022-08-19T14:11:21;1.83;;;1.42;;
44110;SDS011;29774;52.664;5.074;2022-08-19T14:13:47;1.63;;;1.52;;
44110;SDS011;29774;52.664;5.074;2022-08-19T14:16:13;1.35;;;1.20;;
44110;SDS011;29774;52.664;5.074;2022-08-19T14:18:40;1.38;;;1.27;;
44110;SDS011;29774;52.664;5.074;2022-08-19T14:21:06;1.75;;;1.27;;
44110;SDS011;29774;52.664;5.074;2022-08-19T14:23:33;1.77;;;1.50;;
44110;SDS011;29774;52.664;5.074;2022-08-19T14:26:05;1.45;;;1.25;;
44110;SDS011;29774;52.664;5.074;2022-08-19T14:28:32;2.05;;;1.52;;
44110;SDS011;29774;52.664;5.074;2022-08-19T14:30:58;4.43;;;1.77;;
44110;SDS011;29774;52.664;5.074;2022-08-19T14:33:23;1.27;;;1.17;;
44110;SDS011;29774;52.664;5.074;2022-08-19T14:35:49;1.23;;;1.13;;
44110;SDS011;29774;52.664;5.074;2022-08-19T14:38:16;1.00;;;1.00;;
44110;SDS011;29774;52.664;5.074;2022-08-19T14:40:43;1.10;;;1.00;;
44110;SDS011;29774;52.664;5.074;2022-08-19T14:43:09;1.25;;;1.10;;
44110;SDS011;29774;52.664;5.074;2022-08-19T14:45:36;1.80;;;0.98;;
44110;SDS011;29774;52.664;5.074;2022-08-19T14:48:04;2.08;;;1.10;;
44110;SDS011;29774;52.664;5.074;2022-08-19T14:50:30;1.20;;;0.93;;
44110;SDS011;29774;52.664;5.074;2022-08-19T14:52:58;0.90;;;0.90;;
44110;SDS011;29774;52.664;5.074;2022-08-19T14:55:30;1.27;;;1.10;;
44110;SDS011;29774;52.664;5.074;2022-08-19T14:57:56;1.10;;;0.95;;
44110;SDS011;29774;52.664;5.074;2022-08-19T15:00:22;1.30;;;1.20;;